Time;durP1;ratioP1;P1;durP2;ratioP2;P2;SDS_P1;SDS_P2;PMS_P1;PMS_P2;Temp;Humidity;BMP_temperature;BMP_pressure;BME280_temperature;BME280_humidity;BME280_pressure;Samples;Min_cycle;Max_cycle;Signal;HPM_P1;HPM_P2
2023/10/16 00:02:13;;;;;;;2.33;1.17;;;5.90;99.90;;;;;;5073829;28;20231;-61
2023/10/16 00:04:45;;;;;;;4.85;1.25;;;5.90;99.90;;;;;;5073828;28;20302;-60
2023/10/16 00:07:13;;;;;;;2.03;0.90;;;5.90;99.90;;;;;;5074912;28;20187;-60
2023/10/16 00:09:41;;;;;;;4.53;1.73;;;5.90;99.90;;;;;;5075105;28;20205;-59
2023/10/16 00:12:09;;;;;;;7.22;1.55;;;5.80;99.90;;;;;;5074682;28;20233;-60
2023/10/16 00:14:36;;;;;;;3.65;1.65;;;5.80;99.90;;;;;;5077773;28;20196;-60
2023/10/16 00:17:08;;;;;;;3.28;1.10;;;5.90;99.90;;;;;;5079777;28;20217;-61
2023/10/16 00:19:35;;;;;;;2.20;1.25;;;5.90;99.90;;;;;;5079761;28;20204;-61
2023/10/16 00:22:10;;;;;;;2.25;1.27;;;5.90;99.90;;;;;;5076560;28;20217;-61
2023/10/16 00:24:37;;;;;;;2.35;1.63;;;5.90;99.90;;;;;;5078789;28;20217;-58
2023/10/16 00:27:05;;;;;;;4.10;1.55;;;5.90;99.90;;;;;;5080152;28;20284;-60
2023/10/16 00:29:35;;;;;;;4.50;1.92;;;5.90;99.90;;;;;;5083565;28;20651;-60
2023/10/16 00:32:07;;;;;;;6.38;2.05;;;5.80;99.90;;;;;;5083073;28;20671;-61
2023/10/16 00:34:34;;;;;;;2.75;1.48;;;5.80;99.90;;;;;;5082419;28;20193;-60
2023/10/16 00:37:02;;;;;;;5.80;1.70;;;5.80;99.90;;;;;;5082166;28;20224;-61
2023/10/16 00:39:30;;;;;;;9.02;1.50;;;5.80;99.90;;;;;;5082837;28;20201;-59
2023/10/16 00:41:58;;;;;;;8.80;1.75;;;5.70;99.90;;;;;;5083569;28;20243;-60
2023/10/16 00:44:24;;;;;;;11.27;1.58;;;5.70;99.90;;;;;;5082432;28;20217;-60
2023/10/16 00:46:53;;;;;;;3.55;1.33;;;5.60;99.90;;;;;;5081992;28;20193;-60
2023/10/16 00:49:23;;;;;;;5.45;2.00;;;5.60;99.90;;;;;;5079044;28;20201;-60
2023/10/16 00:51:50;;;;;;;4.18;1.50;;;5.60;99.90;;;;;;5081839;28;20316;-61
2023/10/16 00:54:27;;;;;;;5.60;1.63;;;5.60;99.90;;;;;;5079878;28;20201;-60
2023/10/16 00:56:57;;;;;;;3.80;1.73;;;5.60;99.90;;;;;;5079016;28;20216;-60
2023/10/16 00:59:24;;;;;;;4.07;1.70;;;5.70;99.90;;;;;;5079866;28;20240;-60
2023/10/16 01:02:07;;;;;;;3.88;1.65;;;5.70;99.90;;;;;;5077864;28;20222;-61
2023/10/16 01:04:34;;;;;;;1.52;1.20;;;5.70;99.90;;;;;;5078682;28;20189;-60
2023/10/16 01:07:02;;;;;;;3.60;1.60;;;5.70;99.90;;;;;;5081101;28;20211;-59
2023/10/16 01:09:33;;;;;;;3.55;1.65;;;5.70;99.90;;;;;;5078693;28;20212;-62
2023/10/16 01:12:06;;;;;;;6.57;1.60;;;5.70;99.90;;;;;;5077218;28;20283;-60
2023/10/16 01:14:35;;;;;;;4.57;2.33;;;5.70;99.90;;;;;;5078537;28;20609;-60
2023/10/16 01:17:02;;;;;;;3.03;2.10;;;5.70;99.90;;;;;;5078926;28;20309;-60
2023/10/16 01:19:29;;;;;;;4.65;1.70;;;5.70;99.90;;;;;;5077737;28;20209;-60
2023/10/16 01:21:58;;;;;;;4.03;1.67;;;5.70;99.90;;;;;;5077455;28;20311;-61
2023/10/16 01:24:27;;;;;;;13.55;2.08;;;5.70;99.90;;;;;;5077609;28;20205;-60
2023/10/16 01:27:00;;;;;;;2.35;1.20;;;5.80;99.90;;;;;;5077799;28;20548;-61
2023/10/16 01:29:27;;;;;;;2.47;1.40;;;5.80;99.90;;;;;;5077579;28;20232;-61
2023/10/16 01:31:54;;;;;;;5.40;1.77;;;5.90;99.90;;;;;;5077388;28;20246;-60
2023/10/16 01:34:22;;;;;;;4.07;1.20;;;5.90;99.90;;;;;;5078605;28;20201;-62
2023/10/16 01:36:51;;;;;;;4.28;1.30;;;6.00;99.90;;;;;;5078383;28;20236;-60
2023/10/16 01:42:03;;;;;;;3.42;1.25;;;6.10;99.90;;;;;;5067790;28;20628;-60
2023/10/16 01:44:30;;;;;;;4.20;1.50;;;6.10;99.90;;;;;;5079126;28;20582;-62
2023/10/16 01:46:57;;;;;;;3.42;1.45;;;6.10;99.90;;;;;;5077570;28;20623;-60
2023/10/16 01:49:24;;;;;;;3.25;1.30;;;6.10;99.90;;;;;;5078318;28;20204;-60
2023/10/16 01:51:51;;;;;;;3.28;1.45;;;6.00;99.90;;;;;;5078351;28;20217;-61
2023/10/16 01:54:22;;;;;;;2.53;1.20;;;6.00;99.90;;;;;;5078102;28;20197;-61
2023/10/16 01:56:49;;;;;;;7.47;1.73;;;6.00;99.90;;;;;;5077323;28;20190;-60
2023/10/16 01:59:17;;;;;;;10.70;1.30;;;5.90;99.90;;;;;;5077587;28;20304;-60
2023/10/16 02:01:45;;;;;;;4.25;0.98;;;5.90;99.90;;;;;;5076601;28;20571;-61
2023/10/16 02:04:12;;;;;;;3.08;1.35;;;5.90;99.90;;;;;;5075299;28;20679;-61
2023/10/16 02:06:39;;;;;;;1.58;0.98;;;5.90;99.90;;;;;;5075869;28;20243;-61
2023/10/16 02:09:12;;;;;;;6.93;1.50;;;5.90;99.90;;;;;;5075373;28;20232;-61
2023/10/16 02:11:40;;;;;;;3.75;1.52;;;5.90;99.90;;;;;;5075000;28;20229;-60
2023/10/16 02:14:08;;;;;;;3.35;1.50;;;5.90;99.90;;;;;;5075399;28;20211;-61
2023/10/16 02:16:37;;;;;;;4.03;1.45;;;5.90;99.90;;;;;;5075508;28;20213;-61
2023/10/16 02:19:05;;;;;;;4.82;1.98;;;6.00;99.90;;;;;;5074805;28;20661;-60
2023/10/16 02:21:32;;;;;;;3.80;1.27;;;6.00;99.90;;;;;;5075166;28;20254;-60
2023/10/16 02:24:03;;;;;;;3.20;1.20;;;5.90;99.90;;;;;;5074791;28;20611;-59
2023/10/16 02:26:30;;;;;;;1.38;1.25;;;5.90;99.90;;;;;;5075602;28;20220;-60
2023/10/16 02:29:00;;;;;;;2.97;1.35;;;5.90;99.90;;;;;;5076037;28;20193;-61
2023/10/16 02:31:29;;;;;;;4.97;1.83;;;5.90;99.90;;;;;;5075622;28;20251;-60
2023/10/16 02:34:10;;;;;;;2.97;1.70;;;5.90;99.90;;;;;;5075397;28;20577;-61
2023/10/16 02:36:37;;;;;;;5.20;1.50;;;5.90;99.90;;;;;;5074991;28;20610;-60
2023/10/16 02:39:08;;;;;;;3.28;1.30;;;5.90;99.90;;;;;;5074965;28;20221;-61
2023/10/16 02:41:34;;;;;;;2.13;1.25;;;5.90;99.90;;;;;;5076185;28;20230;-61
2023/10/16 02:44:01;;;;;;;2.55;1.35;;;5.90;99.90;;;;;;5077163;28;20197;-62
2023/10/16 02:46:30;;;;;;;5.32;1.60;;;5.90;99.90;;;;;;5077396;28;20205;-61
2023/10/16 02:48:58;;;;;;;4.20;1.60;;;5.90;99.90;;;;;;5078131;28;20198;-62
2023/10/16 02:51:25;;;;;;;6.03;2.00;;;5.90;99.90;;;;;;5076481;28;20796;-60
2023/10/16 02:53:54;;;;;;;5.38;2.08;;;5.90;99.90;;;;;;5078943;28;20197;-60
2023/10/16 02:56:22;;;;;;;1.65;1.23;;;5.90;99.90;;;;;;5077795;28;20208;-61
2023/10/16 02:58:54;;;;;;;2.97;1.50;;;5.90;99.90;;;;;;5078899;28;20236;-61
2023/10/16 03:01:22;;;;;;;2.00;1.30;;;5.90;99.90;;;;;;5079696;28;20228;-60
2023/10/16 03:03:49;;;;;;;7.93;2.42;;;5.90;99.90;;;;;;5078389;28;20201;-61
2023/10/16 03:06:18;;;;;;;3.85;1.45;;;5.90;99.90;;;;;;5078421;28;20204;-61
2023/10/16 03:08:48;;;;;;;1.40;1.15;;;5.80;99.90;;;;;;5077880;28;20254;-60
2023/10/16 03:11:15;;;;;;;5.53;1.48;;;5.80;99.90;;;;;;5076752;28;20297;-61
2023/10/16 03:13:43;;;;;;;3.85;1.20;;;5.80;99.90;;;;;;5075304;28;20240;-61
2023/10/16 03:16:15;;;;;;;8.60;2.30;;;5.70;99.90;;;;;;5076315;28;20205;-61
2023/10/16 03:18:44;;;;;;;6.88;1.88;;;5.80;99.90;;;;;;5074917;28;20700;-60
2023/10/16 03:21:26;;;;;;;3.60;1.50;;;5.70;99.90;;;;;;5074940;28;20312;-60
2023/10/16 03:23:58;;;;;;;5.18;1.48;;;5.70;99.90;;;;;;5074140;28;20632;-61
2023/10/16 03:26:27;;;;;;;2.15;1.58;;;5.70;99.90;;;;;;5075199;28;20271;-61
2023/10/16 03:28:54;;;;;;;3.10;1.60;;;5.70;99.90;;;;;;5074821;28;20194;-60
2023/10/16 03:31:21;;;;;;;6.63;1.80;;;5.70;99.90;;;;;;5074602;28;20671;-60
2023/10/16 03:33:48;;;;;;;2.15;1.27;;;5.70;99.90;;;;;;5078448;28;20287;-60
2023/10/16 03:36:15;;;;;;;7.55;1.80;;;5.70;99.90;;;;;;5077013;28;20213;-61
2023/10/16 03:38:42;;;;;;;1.83;1.40;;;5.70;99.90;;;;;;5077872;28;20233;-60
2023/10/16 03:41:18;;;;;;;5.85;1.58;;;5.70;99.90;;;;;;5078234;28;20637;-61
2023/10/16 03:43:45;;;;;;;3.30;1.88;;;5.60;99.90;;;;;;5079703;28;20254;-60
2023/10/16 03:46:13;;;;;;;7.28;1.77;;;5.60;99.90;;;;;;5076819;28;20201;-60
2023/10/16 03:48:40;;;;;;;6.13;1.60;;;5.60;99.90;;;;;;5076656;28;20219;-60
2023/10/16 03:51:07;;;;;;;2.63;1.88;;;5.60;99.90;;;;;;5076382;28;20247;-59
2023/10/16 03:53:35;;;;;;;3.58;1.55;;;5.70;99.90;;;;;;5078992;28;20252;-61
2023/10/16 03:56:02;;;;;;;3.63;1.38;;;5.60;99.90;;;;;;5076973;28;20201;-60
2023/10/16 03:58:33;;;;;;;5.85;3.35;;;5.60;99.90;;;;;;5078985;28;20248;-61
2023/10/16 04:03:36;;;;;;;4.10;2.70;;;5.60;99.90;;;;;;5031612;28;20215;-57
2023/10/16 04:06:08;;;;;;;3.33;1.38;;;5.60;99.90;;;;;;5033302;28;20229;-57
2023/10/16 04:08:36;;;;;;;2.00;1.80;;;5.70;99.90;;;;;;5033237;28;20241;-58
2023/10/16 04:12:21;;;;;;;2.10;1.80;;;5.60;99.90;;;;;;5091363;28;20569;-59
2023/10/16 04:14:54;;;;;;;3.35;1.70;;;5.70;99.90;;;;;;5091021;28;20200;-59
2023/10/16 04:17:24;;;;;;;4.13;1.80;;;5.70;99.90;;;;;;5091108;28;20181;-59
2023/10/16 04:19:53;;;;;;;6.25;2.58;;;5.70;99.90;;;;;;5090485;28;20201;-59
2023/10/16 04:22:24;;;;;;;4.82;2.10;;;5.70;99.90;;;;;;5090523;28;20212;-59
2023/10/16 04:24:55;;;;;;;6.18;1.90;;;5.70;99.90;;;;;;5090677;28;20218;-59
2023/10/16 04:27:34;;;;;;;3.50;2.55;;;5.70;99.90;;;;;;5090299;28;20618;-59
2023/10/16 04:38:30;;;;;;;4.45;2.20;;;6.00;99.90;;;;;;5090072;28;20179;-60
2023/10/16 04:44:22;;;;;;;6.70;2.25;;;6.00;99.90;;;;;;5090409;28;20655;-60
2023/10/16 04:49:28;;;;;;;3.10;1.80;;;6.10;99.90;;;;;;5089877;28;20196;-60
2023/10/16 04:52:01;;;;;;;2.88;1.70;;;6.20;99.90;;;;;;5089489;28;20715;-60
2023/10/16 04:54:56;;;;;;;3.20;1.90;;;6.20;99.90;;;;;;5090062;28;20193;-60
2023/10/16 05:00:54;;;;;;;3.80;1.90;;;6.20;99.90;;;;;;5085141;28;20197;-58
2023/10/16 05:03:23;;;;;;;9.35;2.15;;;6.20;99.90;;;;;;5089347;28;20196;-59
2023/10/16 05:06:04;;;;;;;5.95;1.80;;;6.20;99.90;;;;;;5089791;28;20577;-59
2023/10/16 05:08:38;;;;;;;5.78;1.90;;;6.20;99.90;;;;;;5089781;28;20552;-59
2023/10/16 05:13:56;;;;;;;4.78;1.83;;;6.30;99.90;;;;;;5089500;28;20188;-60
2023/10/16 05:16:35;;;;;;;1.92;1.35;;;6.30;99.90;;;;;;5089683;28;20220;-59
2023/10/16 05:19:03;;;;;;;2.70;1.50;;;6.30;99.90;;;;;;5089540;28;20589;-60
2023/10/16 06:16:28;;;;;;;2.40;1.77;;;6.60;99.90;;;;;;5075028;28;20186;-59
2023/10/16 06:18:55;;;;;;;4.22;1.48;;;6.60;99.90;;;;;;5074637;28;20201;-59
2023/10/16 06:21:25;;;;;;;3.67;2.55;;;6.70;99.90;;;;;;5074569;28;20215;-61
2023/10/16 06:23:52;;;;;;;7.70;1.80;;;6.70;99.90;;;;;;5074819;28;20222;-60
2023/10/16 06:26:26;;;;;;;2.20;1.73;;;6.80;99.90;;;;;;5074981;28;20208;-61
2023/10/16 06:28:54;;;;;;;4.00;1.95;;;6.80;99.90;;;;;;5074643;28;20677;-60
2023/10/16 06:31:23;;;;;;;5.43;1.67;;;6.90;99.90;;;;;;5074569;28;20232;-61
2023/10/16 06:33:55;;;;;;;4.88;1.60;;;6.90;99.90;;;;;;5073192;28;20203;-60
2023/10/16 06:36:24;;;;;;;1.90;1.70;;;7.00;99.90;;;;;;5074394;28;20207;-60
2023/10/16 06:38:52;;;;;;;3.70;1.85;;;7.00;99.90;;;;;;5073975;28;20676;-59
2023/10/16 06:41:20;;;;;;;2.35;1.48;;;7.10;99.90;;;;;;5074045;28;20215;-60
2023/10/16 06:43:48;;;;;;;2.88;1.50;;;7.20;99.90;;;;;;5074493;28;20299;-61
2023/10/16 06:46:21;;;;;;;1.88;1.52;;;7.20;99.90;;;;;;5074281;28;20211;-60
2023/10/16 06:48:49;;;;;;;8.43;1.38;;;7.30;99.90;;;;;;5074144;28;20192;-60
2023/10/16 06:51:16;;;;;;;4.35;2.50;;;7.30;99.90;;;;;;5074068;28;20229;-60
2023/10/16 06:53:45;;;;;;;7.97;1.90;;;7.30;99.90;;;;;;5074222;28;20204;-60
2023/10/16 06:56:27;;;;;;;3.88;1.85;;;7.30;99.90;;;;;;5074905;28;20212;-60
2023/10/16 06:58:56;;;;;;;4.43;1.65;;;7.40;99.90;;;;;;5074692;28;20193;-59
2023/10/16 07:01:25;;;;;;;4.78;1.60;;;7.40;99.90;;;;;;5073836;28;20718;-58
2023/10/16 07:03:52;;;;;;;3.42;1.70;;;7.40;99.90;;;;;;5074093;28;20210;-59
2023/10/16 07:06:24;;;;;;;2.25;1.27;;;7.50;99.90;;;;;;5073936;28;20201;-59
2023/10/16 07:08:52;;;;;;;2.03;1.40;;;7.60;99.90;;;;;;5073598;28;20581;-59
2023/10/16 07:11:21;;;;;;;2.90;1.50;;;7.60;99.90;;;;;;5073511;28;20246;-60
2023/10/16 07:13:49;;;;;;;5.00;1.60;;;7.60;99.90;;;;;;5073936;28;20303;-61
2023/10/16 07:16:16;;;;;;;1.77;1.50;;;7.60;99.90;;;;;;5073856;28;20251;-60
2023/10/16 07:18:43;;;;;;;3.58;1.90;;;7.70;99.90;;;;;;5073958;28;20213;-59
2023/10/16 07:21:17;;;;;;;5.18;2.03;;;7.70;99.90;;;;;;5073717;28;20217;-60
2023/10/16 07:23:44;;;;;;;3.35;1.88;;;7.70;99.90;;;;;;5073649;28;20193;-60
2023/10/16 07:26:16;;;;;;;4.50;1.67;;;7.80;99.90;;;;;;5073719;28;20200;-60
2023/10/16 07:28:48;;;;;;;3.35;1.60;;;7.80;99.90;;;;;;5073591;28;20276;-60
2023/10/16 07:31:16;;;;;;;2.10;1.90;;;7.90;99.90;;;;;;5074484;28;20252;-60
2023/10/16 07:33:44;;;;;;;2.50;1.60;;;8.00;99.90;;;;;;5073704;28;20197;-59
2023/10/16 07:36:14;;;;;;;3.30;1.80;;;8.20;99.90;;;;;;5073392;28;20203;-60
2023/10/16 07:38:41;;;;;;;2.03;1.75;;;8.30;99.90;;;;;;5074459;28;20309;-58
2023/10/16 07:41:11;;;;;;;2.20;1.40;;;8.30;99.90;;;;;;5073584;28;20666;-61
2023/10/16 07:43:43;;;;;;;3.30;2.15;;;8.40;99.90;;;;;;5073680;28;20197;-59
2023/10/16 07:46:27;;;;;;;3.75;1.63;;;8.50;99.90;;;;;;5073215;28;20204;-61
2023/10/16 07:48:54;;;;;;;3.42;2.28;;;8.60;99.90;;;;;;5074476;28;20283;-58
2023/10/16 07:51:25;;;;;;;3.47;1.70;;;8.70;99.90;;;;;;5075219;28;20231;-60
2023/10/16 07:53:53;;;;;;;3.83;1.80;;;8.70;99.90;;;;;;5074235;28;20239;-59
2023/10/16 07:56:25;;;;;;;3.05;1.27;;;8.70;99.90;;;;;;5073042;28;20207;-59
2023/10/16 07:58:56;;;;;;;4.32;1.55;;;8.70;99.90;;;;;;5073058;28;20643;-60
2023/10/16 08:04:19;;;;;;;2.45;1.70;;;8.70;99.90;;;;;;5073392;28;20654;-60
2023/10/16 08:06:46;;;;;;;3.53;1.70;;;8.70;99.90;;;;;;5074327;28;20185;-60
2023/10/16 08:12:19;;;;;;;3.37;2.00;;;8.90;99.90;;;;;;5072466;28;20217;-60
2023/10/16 08:14:51;;;;;;;3.40;1.95;;;8.90;99.90;;;;;;5073402;28;20534;-60
2023/10/16 08:17:18;;;;;;;2.75;2.10;;;9.00;99.90;;;;;;5073736;28;20189;-59
2023/10/16 08:19:46;;;;;;;2.45;1.75;;;9.10;99.90;;;;;;5072724;28;20527;-60
2023/10/16 08:22:14;;;;;;;3.95;2.05;;;9.10;99.90;;;;;;5073306;28;20217;-60
2023/10/16 08:24:44;;;;;;;4.22;2.03;;;9.10;99.90;;;;;;5073442;28;20212;-61
2023/10/16 08:27:19;;;;;;;4.17;1.80;;;9.20;99.90;;;;;;5078832;28;20326;-60
2023/10/16 08:29:54;;;;;;;2.90;1.45;;;9.30;99.90;;;;;;5077369;28;20435;-59
2023/10/16 08:35:09;;;;;;;7.68;2.10;;;9.60;99.90;;;;;;5074633;28;20184;-59
2023/10/16 08:37:40;;;;;;;3.20;2.33;;;9.60;99.90;;;;;;5075038;28;20272;-59
2023/10/16 08:40:19;;;;;;;2.42;1.55;;;9.60;99.90;;;;;;5074435;28;20439;-61
2023/10/16 08:42:51;;;;;;;4.90;2.00;;;9.60;99.90;;;;;;5075190;28;20221;-60
2023/10/16 08:45:24;;;;;;;2.60;1.87;;;9.60;99.90;;;;;;5074925;28;20735;-60
2023/10/16 08:47:52;;;;;;;3.28;1.92;;;9.60;99.90;;;;;;5075802;28;20428;-60
2023/10/16 08:50:20;;;;;;;3.83;1.90;;;9.60;99.90;;;;;;5074911;28;20205;-59
2023/10/16 08:52:51;;;;;;;5.53;2.63;;;9.70;99.90;;;;;;5073456;28;20540;-60
2023/10/16 08:55:18;;;;;;;4.73;1.87;;;9.70;99.90;;;;;;5074280;28;20454;-61
2023/10/16 08:57:46;;;;;;;6.03;2.60;;;9.80;99.90;;;;;;5075858;28;20437;-60
2023/10/16 09:00:19;;;;;;;4.03;2.40;;;9.80;99.90;;;;;;5077785;28;20443;-60
2023/10/16 09:02:51;;;;;;;2.40;2.00;;;9.90;99.90;;;;;;5079871;28;20572;-60
2023/10/16 09:05:19;;;;;;;3.80;2.67;;;9.90;99.90;;;;;;5078625;28;20420;-60
2023/10/16 09:07:47;;;;;;;4.40;3.23;;;10.00;99.90;;;;;;5079657;28;20443;-60
2023/10/16 09:10:15;;;;;;;4.57;3.00;;;10.00;99.90;;;;;;5077814;28;20876;-61
2023/10/16 09:12:52;;;;;;;5.97;3.35;;;10.00;99.90;;;;;;5077426;28;20873;-59
2023/10/16 09:15:24;;;;;;;4.43;2.70;;;9.90;99.90;;;;;;5077221;28;20193;-60
2023/10/16 09:17:54;;;;;;;5.90;3.13;;;9.80;99.90;;;;;;5076772;28;20427;-60
2023/10/16 09:20:32;;;;;;;3.00;2.60;;;9.80;99.90;;;;;;5076498;28;20221;-60
2023/10/16 09:23:02;;;;;;;8.13;3.17;;;9.90;99.90;;;;;;5075751;28;20221;-60
2023/10/16 09:25:31;;;;;;;6.10;3.00;;;10.00;99.90;;;;;;5076214;28;20451;-60
2023/10/16 09:27:58;;;;;;;2.80;2.40;;;10.10;99.90;;;;;;5076226;28;20478;-60
2023/10/16 09:30:28;;;;;;;5.00;2.80;;;10.20;99.90;;;;;;5075875;28;20439;-60
2023/10/16 09:32:56;;;;;;;3.67;3.00;;;10.20;99.90;;;;;;5075995;28;20513;-60
2023/10/16 09:35:32;;;;;;;2.30;2.13;;;10.30;99.90;;;;;;5076197;28;20442;-61
2023/10/16 09:38:12;;;;;;;3.30;2.83;;;10.40;99.90;;;;;;5076251;28;20497;-62
2023/10/16 09:40:39;;;;;;;3.90;2.97;;;10.50;99.90;;;;;;5076460;28;20432;-60
2023/10/16 09:43:18;;;;;;;5.30;3.00;;;10.60;99.90;;;;;;5076405;28;20456;-62
2023/10/16 09:45:47;;;;;;;6.80;2.60;;;10.60;99.90;;;;;;5078198;28;20487;-60
2023/10/16 09:48:20;;;;;;;7.27;4.10;;;10.70;99.90;;;;;;5076462;28;20475;-61
2023/10/16 09:50:47;;;;;;;5.23;2.77;;;10.70;99.90;;;;;;5081065;28;20427;-61
2023/10/16 09:53:14;;;;;;;4.87;2.73;;;10.70;99.90;;;;;;5075707;28;20543;-61
2023/10/16 09:55:44;;;;;;;5.67;2.80;;;10.60;99.90;;;;;;5075857;28;20471;-60
2023/10/16 09:58:12;;;;;;;7.23;3.30;;;10.60;99.90;;;;;;5076273;28;20455;-61
2023/10/16 10:00:46;;;;;;;4.30;2.37;;;10.60;99.90;;;;;;5076420;28;20451;-62
2023/10/16 10:03:16;;;;;;;3.87;2.43;;;10.50;99.90;;;;;;5076479;28;20551;-57
2023/10/16 10:05:55;;;;;;;3.80;2.53;;;10.50;99.90;;;;;;5075914;28;20467;-60
2023/10/16 10:08:35;;;;;;;3.70;2.40;;;10.60;99.90;;;;;;5075777;28;20427;-60
2023/10/16 10:11:15;;;;;;;3.37;2.40;;;10.70;99.90;;;;;;5075121;28;20465;-61
2023/10/16 10:13:55;;;;;;;4.43;2.70;;;10.80;99.90;;;;;;5075254;28;21051;-60
2023/10/16 10:16:29;;;;;;;4.80;2.53;;;10.80;99.90;;;;;;5076205;28;20435;-59
2023/10/16 10:19:01;;;;;;;3.80;2.50;;;10.90;99.90;;;;;;5075823;28;20435;-61
2023/10/16 10:21:28;;;;;;;4.37;2.40;;;10.90;99.90;;;;;;5075761;28;20464;-60
2023/10/16 10:24:00;;;;;;;4.00;2.27;;;10.80;99.90;;;;;;5075697;28;20444;-60
2023/10/16 10:26:28;;;;;;;5.27;2.67;;;10.90;99.90;;;;;;5075651;28;20517;-60
2023/10/16 10:29:10;;;;;;;2.87;2.67;;;11.00;99.90;;;;;;5075599;28;20502;-61
2023/10/16 10:31:37;;;;;;;2.97;2.30;;;11.20;99.90;;;;;;5075269;28;21011;-60
2023/10/16 10:34:23;;;;;;;2.90;2.07;;;11.30;99.90;;;;;;5076805;28;20447;-60
2023/10/16 10:36:49;;;;;;;2.70;2.30;;;11.20;99.90;;;;;;5076801;28;20432;-60
2023/10/16 10:39:38;;;;;;;4.43;2.23;;;11.20;99.90;;;;;;5076542;28;20450;-60
2023/10/16 10:42:06;;;;;;;3.97;2.30;;;11.10;99.90;;;;;;5077137;28;21084;-60
2023/10/16 10:44:35;;;;;;;5.60;2.60;;;11.10;99.90;;;;;;5084220;28;20466;-60
2023/10/16 10:47:18;;;;;;;3.17;2.53;;;11.10;99.90;;;;;;5086149;28;20444;-61
2023/10/16 10:49:49;;;;;;;2.50;2.30;;;11.30;99.90;;;;;;5085252;28;20523;-61
2023/10/16 10:52:19;;;;;;;2.10;1.90;;;11.40;99.90;;;;;;5080125;28;20990;-61
2023/10/16 10:54:49;;;;;;;5.03;2.57;;;11.50;99.90;;;;;;5075814;28;20527;-60
2023/10/16 10:57:19;;;;;;;3.30;2.60;;;11.70;99.90;;;;;;5077016;28;20452;-61
2023/10/16 10:59:55;;;;;;;4.20;2.23;;;11.90;99.90;;;;;;5080753;28;20446;-61
2023/10/16 11:02:48;;;;;;;3.00;1.97;;;12.10;99.90;;;;;;5080233;28;20472;-61
2023/10/16 11:05:23;;;;;;;2.03;1.40;;;12.40;99.90;;;;;;5083487;28;20443;-62
2023/10/16 11:10:32;;;;;;;5.60;1.60;;;12.90;99.90;;;;;;5078813;28;20461;-59
2023/10/16 11:13:03;;;;;;;2.93;1.40;;;13.10;99.90;;;;;;5074153;28;20486;-62
2023/10/16 11:15:30;;;;;;;3.27;2.23;;;13.10;99.90;;;;;;5074318;28;20434;-61
2023/10/16 11:18:05;;;;;;;2.03;1.40;;;13.10;99.90;;;;;;5074239;28;20449;-61
2023/10/16 11:20:36;;;;;;;1.70;1.20;;;13.20;99.90;;;;;;5074971;28;20423;-61
2023/10/16 11:23:12;;;;;;;1.83;1.10;;;13.20;99.70;;;;;;5075061;28;20468;-61
2023/10/16 11:25:39;;;;;;;2.33;1.17;;;13.10;98.90;;;;;;5075427;28;20477;-61
2023/10/16 11:28:08;;;;;;;3.17;1.50;;;13.00;98.80;;;;;;5075034;28;20449;-61
2023/10/16 11:30:38;;;;;;;3.30;1.57;;;12.90;99.10;;;;;;5074676;28;20468;-60
2023/10/16 11:33:08;;;;;;;2.80;1.40;;;12.70;99.10;;;;;;5073771;28;20529;-61
2023/10/16 11:35:37;;;;;;;2.13;1.40;;;12.30;99.90;;;;;;5074481;28;20452;-60
2023/10/16 11:38:13;;;;;;;1.90;1.60;;;11.90;99.90;;;;;;5074485;28;20454;-60
2023/10/16 11:40:42;;;;;;;2.60;1.60;;;11.50;99.90;;;;;;5074161;28;20559;-61
2023/10/16 11:43:11;;;;;;;3.20;2.20;;;11.00;99.90;;;;;;5073323;28;20528;-61
2023/10/16 11:45:39;;;;;;;4.27;2.57;;;10.70;99.90;;;;;;5073342;28;20443;-62
2023/10/16 11:48:24;;;;;;;5.00;2.77;;;10.40;99.90;;;;;;5074241;28;20506;-60
2023/10/16 11:50:58;;;;;;;3.40;2.50;;;10.10;99.90;;;;;;5074561;28;20519;-62
2023/10/16 11:53:28;;;;;;;4.20;2.50;;;10.00;99.90;;;;;;5073429;28;20513;-61
2023/10/16 11:55:56;;;;;;;3.43;2.30;;;10.00;99.90;;;;;;5073899;28;20459;-60
2023/10/16 11:58:23;;;;;;;3.77;2.00;;;9.90;99.90;;;;;;5073460;28;20447;-59
2023/10/16 12:00:53;;;;;;;2.73;2.43;;;9.90;99.90;;;;;;5074158;28;20445;-61
2023/10/16 12:03:23;;;;;;;3.40;2.45;;;9.80;99.90;;;;;;5074430;28;20512;-60
2023/10/16 12:05:52;;;;;;;3.40;2.50;;;9.80;99.90;;;;;;5073539;28;20579;-61
2023/10/16 12:08:21;;;;;;;3.13;2.33;;;9.90;99.90;;;;;;5073388;28;20469;-62
2023/10/16 12:10:50;;;;;;;6.60;2.50;;;9.90;99.90;;;;;;5073252;28;20459;-63
2023/10/16 12:13:17;;;;;;;3.00;2.43;;;10.00;99.90;;;;;;5073061;28;20483;-61
2023/10/16 12:15:46;;;;;;;3.23;2.33;;;10.00;99.90;;;;;;5073513;28;20443;-62
2023/10/16 12:18:14;;;;;;;4.70;2.40;;;10.00;99.90;;;;;;5073896;28;20447;-60
2023/10/16 12:20:41;;;;;;;2.60;1.70;;;10.00;99.90;;;;;;5072739;28;20473;-61
2023/10/16 12:23:09;;;;;;;2.70;2.00;;;10.00;99.90;;;;;;5072780;28;20455;-61
2023/10/16 12:25:37;;;;;;;1.83;1.37;;;10.00;99.90;;;;;;5073046;28;20941;-61
2023/10/16 12:28:07;;;;;;;9.03;1.70;;;10.10;99.90;;;;;;5073747;28;20447;-61
2023/10/16 12:30:36;;;;;;;2.80;2.13;;;10.10;99.90;;;;;;5073163;28;20447;-61
2023/10/16 12:33:05;;;;;;;3.03;1.70;;;10.30;99.90;;;;;;5074824;28;20980;-61
2023/10/16 12:35:31;;;;;;;2.33;2.00;;;10.40;99.90;;;;;;5076996;28;20470;-61
2023/10/16 12:37:59;;;;;;;4.20;1.70;;;10.50;99.90;;;;;;5077664;28;20447;-60
2023/10/16 12:40:28;;;;;;;4.90;2.20;;;10.60;99.90;;;;;;5077734;28;20545;-60
2023/10/16 12:42:55;;;;;;;2.53;1.60;;;10.70;99.90;;;;;;5077218;28;20981;-60
2023/10/16 12:45:23;;;;;;;3.17;1.70;;;10.70;99.90;;;;;;5077027;28;20524;-61
2023/10/16 12:47:51;;;;;;;5.40;1.40;;;10.80;99.90;;;;;;5078076;28;20458;-60
2023/10/16 12:50:23;;;;;;;2.40;1.40;;;10.80;99.90;;;;;;5077322;28;20479;-60
2023/10/16 12:52:51;;;;;;;2.90;2.50;;;10.90;99.90;;;;;;5081765;28;20491;-60
2023/10/16 12:55:19;;;;;;;3.33;1.73;;;10.90;99.90;;;;;;5077243;28;20500;-59
2023/10/16 12:57:48;;;;;;;2.93;1.87;;;10.90;99.90;;;;;;5077074;28;20485;-60
2023/10/16 13:00:16;;;;;;;2.40;1.77;;;10.80;99.90;;;;;;5076575;28;20474;-60
2023/10/16 13:02:45;;;;;;;2.77;2.03;;;10.90;99.90;;;;;;5076982;28;20457;-60
2023/10/16 13:05:14;;;;;;;3.60;1.90;;;11.00;99.90;;;;;;5077214;28;20494;-60
2023/10/16 13:07:42;;;;;;;2.50;1.83;;;11.00;99.90;;;;;;5076874;28;20435;-61
2023/10/16 13:10:10;;;;;;;4.90;2.10;;;11.00;99.90;;;;;;5076374;28;20455;-60
2023/10/16 13:12:39;;;;;;;2.10;1.80;;;11.00;99.90;;;;;;5076575;28;20491;-61
2023/10/16 13:15:08;;;;;;;4.33;3.30;;;10.90;99.90;;;;;;5077293;28;20447;-60
2023/10/16 13:17:35;;;;;;;3.80;2.20;;;10.80;99.90;;;;;;5077494;28;20447;-61
2023/10/16 13:20:04;;;;;;;6.80;2.10;;;10.70;99.90;;;;;;5077546;28;20869;-60
2023/10/16 13:22:31;;;;;;;2.67;1.80;;;10.60;99.90;;;;;;5077208;28;20827;-59
2023/10/16 13:24:59;;;;;;;2.50;1.67;;;10.60;99.90;;;;;;5076697;28;20435;-61
2023/10/16 13:27:27;;;;;;;5.17;2.43;;;10.60;99.90;;;;;;5079823;28;20451;-60
2023/10/16 13:29:54;;;;;;;2.40;1.60;;;10.60;99.90;;;;;;5083930;28;20447;-60
2023/10/16 13:32:22;;;;;;;4.20;2.40;;;10.70;99.90;;;;;;5084168;28;20539;-60
2023/10/16 13:34:50;;;;;;;4.00;1.87;;;10.80;99.90;;;;;;5087746;28;20446;-60
2023/10/16 13:37:18;;;;;;;2.73;1.60;;;10.90;99.90;;;;;;5085206;28;20492;-61
2023/10/16 13:39:45;;;;;;;3.60;1.87;;;11.10;99.90;;;;;;5085251;28;20437;-59
2023/10/16 13:42:14;;;;;;;3.07;2.10;;;11.20;99.90;;;;;;5080126;28;20904;-61
2023/10/16 13:44:42;;;;;;;3.77;1.60;;;11.40;99.90;;;;;;5076027;28;20435;-60
2023/10/16 13:47:10;;;;;;;2.43;1.57;;;11.40;99.90;;;;;;5076400;28;20456;-59
2023/10/16 13:49:38;;;;;;;3.20;1.60;;;11.40;99.90;;;;;;5077033;28;20945;-61
2023/10/16 13:52:07;;;;;;;2.70;1.50;;;11.30;99.90;;;;;;5076335;28;20474;-60
2023/10/16 13:54:35;;;;;;;7.77;1.73;;;11.20;99.90;;;;;;5076136;28;20490;-60
2023/10/16 13:57:02;;;;;;;3.00;1.10;;;11.20;99.90;;;;;;5076806;28;20450;-59
2023/10/16 13:59:29;;;;;;;3.10;1.63;;;11.20;99.90;;;;;;5076347;28;20956;-61
2023/10/16 14:01:58;;;;;;;5.13;1.80;;;11.20;99.90;;;;;;5076239;28;20654;-60
2023/10/16 14:04:32;;;;;;;6.00;1.70;;;11.20;99.90;;;;;;5076419;28;20498;-60
2023/10/16 14:07:07;;;;;;;6.70;2.20;;;11.30;99.90;;;;;;5076211;28;20785;-60
2023/10/16 14:09:35;;;;;;;3.33;1.40;;;11.30;99.90;;;;;;5075738;28;20517;-59
2023/10/16 14:12:02;;;;;;;4.03;1.90;;;11.30;99.90;;;;;;5076281;28;20540;-59
2023/10/16 14:14:32;;;;;;;2.90;2.27;;;11.30;99.90;;;;;;5075591;28;20484;-61
2023/10/16 14:17:03;;;;;;;6.93;3.00;;;11.30;99.90;;;;;;5076364;28;20535;-61
2023/10/16 14:19:30;;;;;;;2.47;2.10;;;11.30;99.90;;;;;;5075733;28;20945;-60
2023/10/16 14:21:58;;;;;;;3.97;2.40;;;11.20;99.90;;;;;;5076290;28;20466;-60
2023/10/16 14:24:27;;;;;;;6.53;2.50;;;11.10;99.90;;;;;;5075737;28;20777;-61
2023/10/16 14:26:55;;;;;;;4.10;2.67;;;11.10;99.90;;;;;;5076122;28;20811;-60
2023/10/16 14:29:22;;;;;;;5.70;2.37;;;10.90;99.90;;;;;;5076040;28;20525;-61
2023/10/16 14:31:50;;;;;;;5.87;2.80;;;10.70;99.90;;;;;;5075678;28;20784;-61
2023/10/16 14:34:19;;;;;;;4.70;2.43;;;10.50;99.90;;;;;;5074953;28;20483;-61
2023/10/16 14:36:46;;;;;;;4.30;2.63;;;10.20;99.90;;;;;;5075010;28;20545;-60
2023/10/16 14:39:14;;;;;;;5.93;3.43;;;10.00;99.90;;;;;;5074639;28;20798;-62
2023/10/16 14:41:42;;;;;;;5.80;2.83;;;9.90;99.90;;;;;;5074587;28;21006;-61